sensor_id;sensor_type;location;lat;lon;timestamp;P1;durP1;ratioP1;P2;durP2;ratioP2
11453;SDS011;5783;55.174;61.310;2023-03-01T00:02:13;2.60;;;1.90;;
11453;SDS011;5783;55.174;61.310;2023-03-01T00:04:42;2.10;;;1.90;;
11453;SDS011;5783;55.174;61.310;2023-03-01T00:07:12;2.20;;;2.00;;
11453;SDS011;5783;55.174;61.310;2023-03-01T00:09:41;2.07;;;1.87;;
11453;SDS011;5783;55.174;61.310;2023-03-01T00:12:11;2.20;;;2.00;;
11453;SDS011;5783;55.174;61.310;2023-03-01T00:14:41;2.03;;;1.90;;
11453;SDS011;5783;55.174;61.310;2023-03-01T00:17:10;2.30;;;2.10;;
11453;SDS011;5783;55.174;61.310;2023-03-01T00:19:39;2.33;;;2.13;;
11453;SDS011;5783;55.174;61.310;2023-03-01T00:22:08;2.10;;;1.90;;
11453;SDS011;5783;55.174;61.310;2023-03-01T00:24:37;2.17;;;1.90;;
11453;SDS011;5783;55.174;61.310;2023-03-01T00:27:06;2.10;;;1.93;;
11453;SDS011;5783;55.174;61.310;2023-03-01T00:29:35;2.47;;;2.00;;
11453;SDS011;5783;55.174;61.310;2023-03-01T00:32:04;2.20;;;2.00;;
11453;SDS011;5783;55.174;61.310;2023-03-01T00:34:34;2.60;;;2.03;;
11453;SDS011;5783;55.174;61.310;2023-03-01T00:37:03;2.20;;;2.00;;
11453;SDS011;5783;55.174;61.310;2023-03-01T00:39:32;1.93;;;1.83;;
11453;SDS011;5783;55.174;61.310;2023-03-01T00:42:01;2.30;;;2.10;;
11453;SDS011;5783;55.174;61.310;2023-03-01T00:44:30;1.90;;;1.80;;
11453;SDS011;5783;55.174;61.310;2023-03-01T00:47:00;2.30;;;2.10;;
11453;SDS011;5783;55.174;61.310;2023-03-01T00:49:29;2.10;;;1.90;;
11453;SDS011;5783;55.174;61.310;2023-03-01T00:51:59;2.20;;;2.00;;
11453;SDS011;5783;55.174;61.310;2023-03-01T00:54:28;1.80;;;1.70;;
11453;SDS011;5783;55.174;61.310;2023-03-01T00:56:57;2.23;;;2.03;;
11453;SDS011;5783;55.174;61.310;2023-03-01T00:59:26;1.93;;;1.80;;
11453;SDS011;5783;55.174;61.310;2023-03-01T01:01:55;1.80;;;1.70;;
11453;SDS011;5783;55.174;61.310;2023-03-01T01:04:24;2.20;;;2.00;;
11453;SDS011;5783;55.174;61.310;2023-03-01T01:06:54;1.80;;;1.70;;
11453;SDS011;5783;55.174;61.310;2023-03-01T01:09:23;2.10;;;1.90;;
11453;SDS011;5783;55.174;61.310;2023-03-01T01:11:52;2.20;;;2.00;;
11453;SDS011;5783;55.174;61.310;2023-03-01T01:14:21;2.37;;;2.00;;
11453;SDS011;5783;55.174;61.310;2023-03-01T01:16:50;2.03;;;1.90;;
11453;SDS011;5783;55.174;61.310;2023-03-01T01:19:19;2.23;;;2.03;;
11453;SDS011;5783;55.174;61.310;2023-03-01T01:21:49;2.03;;;1.83;;
11453;SDS011;5783;55.174;61.310;2023-03-01T01:24:18;2.07;;;1.90;;
11453;SDS011;5783;55.174;61.310;2023-03-01T01:26:48;2.20;;;1.97;;
11453;SDS011;5783;55.174;61.310;2023-03-01T01:29:17;2.50;;;2.03;;
11453;SDS011;5783;55.174;61.310;2023-03-01T01:31:46;2.10;;;1.90;;
11453;SDS011;5783;55.174;61.310;2023-03-01T01:34:17;1.87;;;1.70;;
11453;SDS011;5783;55.174;61.310;2023-03-01T01:36:48;2.20;;;2.00;;
11453;SDS011;5783;55.174;61.310;2023-03-01T01:39:21;2.07;;;1.90;;
11453;SDS011;5783;55.174;61.310;2023-03-01T01:41:51;2.07;;;1.87;;
11453;SDS011;5783;55.174;61.310;2023-03-01T01:44:21;2.13;;;1.93;;
11453;SDS011;5783;55.174;61.310;2023-03-01T01:46:54;2.10;;;1.90;;
11453;SDS011;5783;55.174;61.310;2023-03-01T01:52:31;2.20;;;2.00;;
11453;SDS011;5783;55.174;61.310;2023-03-01T01:57:55;2.30;;;2.10;;
11453;SDS011;5783;55.174;61.310;2023-03-01T02:00:26;2.47;;;2.10;;
11453;SDS011;5783;55.174;61.310;2023-03-01T02:02:58;2.03;;;1.90;;
11453;SDS011;5783;55.174;61.310;2023-03-01T02:08:38;2.53;;;2.30;;
11453;SDS011;5783;55.174;61.310;2023-03-01T02:11:10;2.20;;;2.00;;
11453;SDS011;5783;55.174;61.310;2023-03-01T02:13:42;2.33;;;2.07;;
11453;SDS011;5783;55.174;61.310;2023-03-01T02:16:13;2.20;;;2.00;;
11453;SDS011;5783;55.174;61.310;2023-03-01T02:18:43;2.83;;;2.40;;
11453;SDS011;5783;55.174;61.310;2023-03-01T02:27:13;2.10;;;1.90;;
11453;SDS011;5783;55.174;61.310;2023-03-01T02:29:46;2.23;;;2.03;;
11453;SDS011;5783;55.174;61.310;2023-03-01T02:32:17;2.40;;;2.20;;
11453;SDS011;5783;55.174;61.310;2023-03-01T02:34:49;2.23;;;1.80;;
11453;SDS011;5783;55.174;61.310;2023-03-01T02:37:20;2.30;;;2.10;;
11453;SDS011;5783;55.174;61.310;2023-03-01T02:45:34;2.50;;;2.30;;
11453;SDS011;5783;55.174;61.310;2023-03-01T02:48:03;2.30;;;2.10;;
11453;SDS011;5783;55.174;61.310;2023-03-01T02:56:31;2.43;;;2.23;;
11453;SDS011;5783;55.174;61.310;2023-03-01T02:59:00;2.30;;;2.10;;
11453;SDS011;5783;55.174;61.310;2023-03-01T03:01:30;2.53;;;2.33;;
11453;SDS011;5783;55.174;61.310;2023-03-01T03:04:18;3.30;;;2.47;;
11453;SDS011;5783;55.174;61.310;2023-03-01T03:06:49;2.33;;;2.13;;
11453;SDS011;5783;55.174;61.310;2023-03-01T03:09:19;2.27;;;2.07;;
11453;SDS011;5783;55.174;61.310;2023-03-01T03:11:49;2.50;;;2.30;;
11453;SDS011;5783;55.174;61.310;2023-03-01T03:14:18;2.43;;;2.23;;
11453;SDS011;5783;55.174;61.310;2023-03-01T03:16:48;2.70;;;2.50;;
11453;SDS011;5783;55.174;61.310;2023-03-01T03:19:18;2.40;;;2.20;;
11453;SDS011;5783;55.174;61.310;2023-03-01T03:21:47;2.97;;;2.60;;
11453;SDS011;5783;55.174;61.310;2023-03-01T03:24:16;3.07;;;2.77;;
11453;SDS011;5783;55.174;61.310;2023-03-01T03:26:46;2.57;;;2.30;;
11453;SDS011;5783;55.174;61.310;2023-03-01T03:29:16;2.63;;;2.43;;
11453;SDS011;5783;55.174;61.310;2023-03-01T03:31:45;2.90;;;2.60;;
11453;SDS011;5783;55.174;61.310;2023-03-01T03:34:14;2.83;;;2.60;;
11453;SDS011;5783;55.174;61.310;2023-03-01T03:36:43;2.70;;;2.50;;
11453;SDS011;5783;55.174;61.310;2023-03-01T03:39:12;2.77;;;2.53;;
11453;SDS011;5783;55.174;61.310;2023-03-01T03:41:41;2.60;;;2.40;;
11453;SDS011;5783;55.174;61.310;2023-03-01T03:44:11;2.53;;;2.33;;
11453;SDS011;5783;55.174;61.310;2023-03-01T03:46:40;2.97;;;2.67;;
11453;SDS011;5783;55.174;61.310;2023-03-01T03:49:09;2.90;;;2.60;;
11453;SDS011;5783;55.174;61.310;2023-03-01T03:51:39;2.60;;;2.33;;
11453;SDS011;5783;55.174;61.310;2023-03-01T03:54:08;3.57;;;2.63;;
11453;SDS011;5783;55.174;61.310;2023-03-01T03:56:37;2.80;;;2.60;;
11453;SDS011;5783;55.174;61.310;2023-03-01T03:59:06;2.67;;;2.47;;
11453;SDS011;5783;55.174;61.310;2023-03-01T04:01:37;2.60;;;2.40;;
11453;SDS011;5783;55.174;61.310;2023-03-01T04:04:06;2.87;;;2.57;;
11453;SDS011;5783;55.174;61.310;2023-03-01T04:06:35;3.03;;;2.73;;
11453;SDS011;5783;55.174;61.310;2023-03-01T04:09:04;2.67;;;2.47;;
11453;SDS011;5783;55.174;61.310;2023-03-01T04:11:33;2.80;;;2.60;;
11453;SDS011;5783;55.174;61.310;2023-03-01T04:14:04;2.77;;;2.57;;
11453;SDS011;5783;55.174;61.310;2023-03-01T04:16:33;2.67;;;2.47;;
11453;SDS011;5783;55.174;61.310;2023-03-01T04:19:02;3.00;;;2.70;;
11453;SDS011;5783;55.174;61.310;2023-03-01T04:21:32;2.80;;;2.50;;
11453;SDS011;5783;55.174;61.310;2023-03-01T04:24:02;2.80;;;2.50;;
11453;SDS011;5783;55.174;61.310;2023-03-01T04:26:32;3.23;;;2.93;;
11453;SDS011;5783;55.174;61.310;2023-03-01T04:29:02;2.60;;;2.40;;
11453;SDS011;5783;55.174;61.310;2023-03-01T04:31:31;2.97;;;2.67;;
11453;SDS011;5783;55.174;61.310;2023-03-01T04:34:00;2.93;;;2.63;;
11453;SDS011;5783;55.174;61.310;2023-03-01T04:36:29;3.00;;;2.67;;
11453;SDS011;5783;55.174;61.310;2023-03-01T04:39:00;3.47;;;2.70;;
11453;SDS011;5783;55.174;61.310;2023-03-01T04:41:31;3.17;;;2.87;;
11453;SDS011;5783;55.174;61.310;2023-03-01T04:44:00;2.87;;;2.67;;
11453;SDS011;5783;55.174;61.310;2023-03-01T04:46:30;3.17;;;2.63;;
11453;SDS011;5783;55.174;61.310;2023-03-01T04:48:59;2.87;;;2.53;;
11453;SDS011;5783;55.174;61.310;2023-03-01T04:51:28;3.20;;;2.90;;
11453;SDS011;5783;55.174;61.310;2023-03-01T04:53:59;2.97;;;2.70;;
11453;SDS011;5783;55.174;61.310;2023-03-01T04:56:32;2.97;;;2.67;;
11453;SDS011;5783;55.174;61.310;2023-03-01T04:59:23;3.07;;;2.77;;
11453;SDS011;5783;55.174;61.310;2023-03-01T05:01:53;2.70;;;2.50;;
11453;SDS011;5783;55.174;61.310;2023-03-01T05:04:26;3.33;;;3.00;;
11453;SDS011;5783;55.174;61.310;2023-03-01T05:06:55;3.27;;;2.97;;
11453;SDS011;5783;55.174;61.310;2023-03-01T05:09:24;3.53;;;3.23;;
11453;SDS011;5783;55.174;61.310;2023-03-01T05:11:53;3.60;;;3.30;;
11453;SDS011;5783;55.174;61.310;2023-03-01T05:14:22;4.63;;;3.37;;
11453;SDS011;5783;55.174;61.310;2023-03-01T05:16:53;4.93;;;4.00;;
11453;SDS011;5783;55.174;61.310;2023-03-01T05:19:24;7.13;;;5.83;;
11453;SDS011;5783;55.174;61.310;2023-03-01T05:21:53;5.97;;;4.67;;
11453;SDS011;5783;55.174;61.310;2023-03-01T05:24:42;6.10;;;5.20;;
11453;SDS011;5783;55.174;61.310;2023-03-01T05:27:12;7.43;;;5.43;;
11453;SDS011;5783;55.174;61.310;2023-03-01T05:29:41;8.30;;;6.00;;
11453;SDS011;5783;55.174;61.310;2023-03-01T05:32:10;8.17;;;6.47;;
11453;SDS011;5783;55.174;61.310;2023-03-01T05:34:41;9.50;;;7.10;;
11453;SDS011;5783;55.174;61.310;2023-03-01T05:37:12;14.47;;;9.63;;
11453;SDS011;5783;55.174;61.310;2023-03-01T05:39:41;13.93;;;10.23;;
11453;SDS011;5783;55.174;61.310;2023-03-01T05:42:10;16.47;;;10.83;;
11453;SDS011;5783;55.174;61.310;2023-03-01T05:44:40;14.93;;;10.80;;
11453;SDS011;5783;55.174;61.310;2023-03-01T05:47:09;17.40;;;11.43;;
11453;SDS011;5783;55.174;61.310;2023-03-01T05:49:38;15.53;;;11.10;;
11453;SDS011;5783;55.174;61.310;2023-03-01T05:52:07;20.37;;;13.57;;
11453;SDS011;5783;55.174;61.310;2023-03-01T05:54:36;22.40;;;15.33;;
11453;SDS011;5783;55.174;61.310;2023-03-01T05:57:06;20.80;;;15.00;;
11453;SDS011;5783;55.174;61.310;2023-03-01T05:59:35;22.30;;;16.63;;
11453;SDS011;5783;55.174;61.310;2023-03-01T06:02:05;23.23;;;16.13;;
11453;SDS011;5783;55.174;61.310;2023-03-01T06:04:34;23.20;;;15.00;;
11453;SDS011;5783;55.174;61.310;2023-03-01T06:07:03;23.17;;;15.73;;
11453;SDS011;5783;55.174;61.310;2023-03-01T06:09:32;21.93;;;15.37;;
11453;SDS011;5783;55.174;61.310;2023-03-01T06:12:01;21.40;;;15.43;;
11453;SDS011;5783;55.174;61.310;2023-03-01T06:14:30;19.13;;;13.37;;
11453;SDS011;5783;55.174;61.310;2023-03-01T06:17:00;16.80;;;12.50;;
11453;SDS011;5783;55.174;61.310;2023-03-01T06:19:29;16.63;;;11.33;;
11453;SDS011;5783;55.174;61.310;2023-03-01T06:21:59;15.30;;;11.47;;
11453;SDS011;5783;55.174;61.310;2023-03-01T06:24:29;15.93;;;11.00;;
11453;SDS011;5783;55.174;61.310;2023-03-01T06:26:59;17.80;;;13.50;;
11453;SDS011;5783;55.174;61.310;2023-03-01T06:29:28;21.57;;;15.47;;
11453;SDS011;5783;55.174;61.310;2023-03-01T06:32:19;20.30;;;14.97;;
11453;SDS011;5783;55.174;61.310;2023-03-01T06:34:48;19.77;;;15.20;;
11453;SDS011;5783;55.174;61.310;2023-03-01T06:37:18;23.27;;;16.07;;
11453;SDS011;5783;55.174;61.310;2023-03-01T06:39:48;20.10;;;14.80;;
11453;SDS011;5783;55.174;61.310;2023-03-01T06:42:17;20.90;;;14.97;;
11453;SDS011;5783;55.174;61.310;2023-03-01T06:44:48;20.10;;;14.90;;
11453;SDS011;5783;55.174;61.310;2023-03-01T06:47:17;19.23;;;14.63;;
11453;SDS011;5783;55.174;61.310;2023-03-01T06:49:46;23.80;;;17.57;;
11453;SDS011;5783;55.174;61.310;2023-03-01T06:52:15;22.87;;;16.30;;
11453;SDS011;5783;55.174;61.310;2023-03-01T06:54:44;20.57;;;14.17;;
11453;SDS011;5783;55.174;61.310;2023-03-01T06:57:33;17.27;;;13.27;;
11453;SDS011;5783;55.174;61.310;2023-03-01T07:00:03;23.30;;;13.60;;
11453;SDS011;5783;55.174;61.310;2023-03-01T07:02:33;18.47;;;13.60;;
11453;SDS011;5783;55.174;61.310;2023-03-01T07:05:03;20.07;;;14.37;;
11453;SDS011;5783;55.174;61.310;2023-03-01T07:07:32;19.50;;;13.40;;
11453;SDS011;5783;55.174;61.310;2023-03-01T07:10:01;17.33;;;12.70;;
11453;SDS011;5783;55.174;61.310;2023-03-01T07:12:31;17.43;;;12.73;;
11453;SDS011;5783;55.174;61.310;2023-03-01T07:15:00;18.40;;;12.67;;
11453;SDS011;5783;55.174;61.310;2023-03-01T07:17:30;15.33;;;11.97;;
11453;SDS011;5783;55.174;61.310;2023-03-01T07:20:00;16.00;;;11.20;;
11453;SDS011;5783;55.174;61.310;2023-03-01T07:22:30;11.93;;;9.23;;
11453;SDS011;5783;55.174;61.310;2023-03-01T07:24:59;11.77;;;9.40;;
11453;SDS011;5783;55.174;61.310;2023-03-01T07:27:30;10.20;;;8.47;;
11453;SDS011;5783;55.174;61.310;2023-03-01T07:29:59;9.07;;;7.30;;
11453;SDS011;5783;55.174;61.310;2023-03-01T07:32:30;8.73;;;7.37;;
11453;SDS011;5783;55.174;61.310;2023-03-01T07:34:59;7.93;;;6.50;;
11453;SDS011;5783;55.174;61.310;2023-03-01T07:37:30;7.97;;;6.30;;
11453;SDS011;5783;55.174;61.310;2023-03-01T07:40:00;7.57;;;6.10;;
11453;SDS011;5783;55.174;61.310;2023-03-01T07:42:30;9.83;;;7.00;;
11453;SDS011;5783;55.174;61.310;2023-03-01T07:44:59;7.83;;;6.27;;
11453;SDS011;5783;55.174;61.310;2023-03-01T07:47:30;8.07;;;6.40;;
11453;SDS011;5783;55.174;61.310;2023-03-01T07:50:00;8.33;;;6.70;;
11453;SDS011;5783;55.174;61.310;2023-03-01T07:52:30;8.73;;;6.53;;
11453;SDS011;5783;55.174;61.310;2023-03-01T07:55:00;9.03;;;6.47;;
11453;SDS011;5783;55.174;61.310;2023-03-01T07:57:30;8.90;;;6.63;;
11453;SDS011;5783;55.174;61.310;2023-03-01T07:59:59;8.07;;;6.37;;
11453;SDS011;5783;55.174;61.310;2023-03-01T08:02:29;7.00;;;5.83;;
11453;SDS011;5783;55.174;61.310;2023-03-01T08:04:59;8.03;;;6.57;;
11453;SDS011;5783;55.174;61.310;2023-03-01T08:07:28;8.93;;;7.13;;
11453;SDS011;5783;55.174;61.310;2023-03-01T08:09:57;10.80;;;7.70;;
11453;SDS011;5783;55.174;61.310;2023-03-01T08:15:01;10.40;;;8.27;;
11453;SDS011;5783;55.174;61.310;2023-03-01T08:20:24;13.30;;;9.90;;
11453;SDS011;5783;55.174;61.310;2023-03-01T08:23:13;11.40;;;8.30;;
11453;SDS011;5783;55.174;61.310;2023-03-01T08:25:47;10.43;;;8.40;;
11453;SDS011;5783;55.174;61.310;2023-03-01T08:28:38;9.77;;;8.13;;
11453;SDS011;5783;55.174;61.310;2023-03-01T08:34:02;10.77;;;7.90;;
11453;SDS011;5783;55.174;61.310;2023-03-01T08:36:51;9.30;;;7.27;;
11453;SDS011;5783;55.174;61.310;2023-03-01T08:39:20;9.23;;;6.97;;
11453;SDS011;5783;55.174;61.310;2023-03-01T08:41:49;6.97;;;5.70;;
11453;SDS011;5783;55.174;61.310;2023-03-01T08:44:18;8.57;;;6.33;;
11453;SDS011;5783;55.174;61.310;2023-03-01T08:46:48;6.00;;;5.17;;
11453;SDS011;5783;55.174;61.310;2023-03-01T08:49:20;5.83;;;4.70;;
11453;SDS011;5783;55.174;61.310;2023-03-01T08:51:49;7.50;;;5.40;;
11453;SDS011;5783;55.174;61.310;2023-03-01T08:54:19;6.77;;;4.73;;
11453;SDS011;5783;55.174;61.310;2023-03-01T08:56:50;6.10;;;4.27;;
11453;SDS011;5783;55.174;61.310;2023-03-01T08:59:19;4.80;;;4.23;;
11453;SDS011;5783;55.174;61.310;2023-03-01T09:01:48;4.50;;;4.00;;
11453;SDS011;5783;55.174;61.310;2023-03-01T09:04:18;4.20;;;3.70;;
11453;SDS011;5783;55.174;61.310;2023-03-01T09:06:47;5.63;;;3.80;;
11453;SDS011;5783;55.174;61.310;2023-03-01T09:09:16;4.93;;;3.77;;
11453;SDS011;5783;55.174;61.310;2023-03-01T09:11:46;4.20;;;3.60;;
11453;SDS011;5783;55.174;61.310;2023-03-01T09:14:16;5.53;;;3.50;;
11453;SDS011;5783;55.174;61.310;2023-03-01T09:16:45;4.07;;;3.43;;
11453;SDS011;5783;55.174;61.310;2023-03-01T09:19:14;3.63;;;3.30;;
11453;SDS011;5783;55.174;61.310;2023-03-01T09:21:44;3.60;;;3.20;;
11453;SDS011;5783;55.174;61.310;2023-03-01T09:24:32;3.53;;;3.17;;
11453;SDS011;5783;55.174;61.310;2023-03-01T09:27:02;3.63;;;3.03;;
11453;SDS011;5783;55.174;61.310;2023-03-01T09:29:32;4.50;;;2.93;;
11453;SDS011;5783;55.174;61.310;2023-03-01T09:32:02;3.60;;;2.90;;
11453;SDS011;5783;55.174;61.310;2023-03-01T09:34:31;3.80;;;3.20;;
11453;SDS011;5783;55.174;61.310;2023-03-01T09:37:02;3.27;;;2.70;;
11453;SDS011;5783;55.174;61.310;2023-03-01T09:39:31;2.90;;;2.60;;
11453;SDS011;5783;55.174;61.310;2023-03-01T09:42:01;3.07;;;2.77;;
11453;SDS011;5783;55.174;61.310;2023-03-01T09:47:24;3.67;;;2.67;;
11453;SDS011;5783;55.174;61.310;2023-03-01T09:55:56;3.07;;;2.77;;
11453;SDS011;5783;55.174;61.310;2023-03-01T10:01:56;2.70;;;2.50;;
11453;SDS011;5783;55.174;61.310;2023-03-01T10:22:09;2.57;;;2.37;;
11453;SDS011;5783;55.174;61.310;2023-03-01T10:25:14;2.80;;;2.50;;
11453;SDS011;5783;55.174;61.310;2023-03-01T10:30:36;2.83;;;2.47;;
11453;SDS011;5783;55.174;61.310;2023-03-01T10:35:59;2.73;;;2.53;;
11453;SDS011;5783;55.174;61.310;2023-03-01T10:38:30;2.67;;;2.47;;
11453;SDS011;5783;55.174;61.310;2023-03-01T10:44:10;2.90;;;2.60;;
11453;SDS011;5783;55.174;61.310;2023-03-01T10:46:44;3.00;;;2.70;;
11453;SDS011;5783;55.174;61.310;2023-03-01T10:57:09;2.80;;;2.43;;
11453;SDS011;5783;55.174;61.310;2023-03-01T10:59:39;2.50;;;2.30;;
11453;SDS011;5783;55.174;61.310;2023-03-01T11:02:14;2.63;;;2.43;;
11453;SDS011;5783;55.174;61.310;2023-03-01T11:04:55;2.80;;;2.50;;
11453;SDS011;5783;55.174;61.310;2023-03-01T11:07:32;2.77;;;2.57;;
11453;SDS011;5783;55.174;61.310;2023-03-01T11:10:11;2.60;;;2.40;;
11453;SDS011;5783;55.174;61.310;2023-03-01T11:12:36;2.63;;;2.33;;
11453;SDS011;5783;55.174;61.310;2023-03-01T11:15:08;3.03;;;2.67;;
11453;SDS011;5783;55.174;61.310;2023-03-01T11:17:38;2.80;;;2.60;;
11453;SDS011;5783;55.174;61.310;2023-03-01T11:28:25;2.50;;;2.30;;
11453;SDS011;5783;55.174;61.310;2023-03-01T11:30:58;4.03;;;2.80;;
11453;SDS011;5783;55.174;61.310;2023-03-01T11:33:48;2.63;;;2.43;;
11453;SDS011;5783;55.174;61.310;2023-03-01T11:42:40;3.03;;;2.20;;
11453;SDS011;5783;55.174;61.310;2023-03-01T11:45:27;2.87;;;2.63;;
11453;SDS011;5783;55.174;61.310;2023-03-01T12:20:30;3.33;;;3.00;;
11453;SDS011;5783;55.174;61.310;2023-03-01T12:36:11;4.90;;;3.20;;
11453;SDS011;5783;55.174;61.310;2023-03-01T12:51:59;3.13;;;2.83;;
11453;SDS011;5783;55.174;61.310;2023-03-01T12:54:49;3.23;;;2.93;;
11453;SDS011;5783;55.174;61.310;2023-03-01T13:21:29;2.60;;;2.33;;
11453;SDS011;5783;55.174;61.310;2023-03-01T13:29:51;2.50;;;2.30;;
11453;SDS011;5783;55.174;61.310;2023-03-01T13:41:10;3.00;;;2.60;;
11453;SDS011;5783;55.174;61.310;2023-03-01T13:43:41;2.60;;;2.30;;
11453;SDS011;5783;55.174;61.310;2023-03-01T13:49:01;3.30;;;2.40;;
11453;SDS011;5783;55.174;61.310;2023-03-01T13:51:31;2.50;;;2.30;;
11453;SDS011;5783;55.174;61.310;2023-03-01T13:54:01;2.77;;;2.43;;
11453;SDS011;5783;55.174;61.310;2023-03-01T13:59:20;3.17;;;2.87;;
11453;SDS011;5783;55.174;61.310;2023-03-01T14:02:10;3.30;;;2.70;;
11453;SDS011;5783;55.174;61.310;2023-03-01T14:04:41;2.67;;;2.47;;
11453;SDS011;5783;55.174;61.310;2023-03-01T14:07:11;3.03;;;2.73;;
11453;SDS011;5783;55.174;61.310;2023-03-01T14:09:43;2.63;;;2.43;;
11453;SDS011;5783;55.174;61.310;2023-03-01T14:20:46;3.30;;;3.00;;
11453;SDS011;5783;55.174;61.310;2023-03-01T14:23:18;2.70;;;2.50;;
11453;SDS011;5783;55.174;61.310;2023-03-01T14:25:51;3.13;;;2.83;;
11453;SDS011;5783;55.174;61.310;2023-03-01T14:28:41;2.90;;;2.50;;
11453;SDS011;5783;55.174;61.310;2023-03-01T14:34:01;2.60;;;2.40;;
11453;SDS011;5783;55.174;61.310;2023-03-01T14:36:31;3.03;;;2.73;;
11453;SDS011;5783;55.174;61.310;2023-03-01T14:39:01;2.60;;;2.40;;
11453;SDS011;5783;55.174;61.310;2023-03-01T14:41:34;3.10;;;2.80;;
11453;SDS011;5783;55.174;61.310;2023-03-01T14:46:54;4.83;;;2.50;;
11453;SDS011;5783;55.174;61.310;2023-03-01T14:49:26;2.90;;;2.40;;
11453;SDS011;5783;55.174;61.310;2023-03-01T14:54:50;3.40;;;2.80;;
11453;SDS011;5783;55.174;61.310;2023-03-01T14:57:22;5.40;;;3.17;;
11453;SDS011;5783;55.174;61.310;2023-03-01T15:02:26;2.93;;;2.73;;
11453;SDS011;5783;55.174;61.310;2023-03-01T15:04:58;4.03;;;2.63;;
11453;SDS011;5783;55.174;61.310;2023-03-01T15:07:34;3.07;;;2.73;;
11453;SDS011;5783;55.174;61.310;2023-03-01T15:10:05;3.07;;;2.77;;
11453;SDS011;5783;55.174;61.310;2023-03-01T15:12:37;2.90;;;2.60;;
11453;SDS011;5783;55.174;61.310;2023-03-01T15:17:59;3.10;;;2.77;;
11453;SDS011;5783;55.174;61.310;2023-03-01T15:20:31;3.10;;;2.80;;
11453;SDS011;5783;55.174;61.310;2023-03-01T15:23:02;3.40;;;2.60;;
11453;SDS011;5783;55.174;61.310;2023-03-01T15:25:32;3.30;;;2.90;;
11453;SDS011;5783;55.174;61.310;2023-03-01T15:28:04;3.53;;;3.00;;
11453;SDS011;5783;55.174;61.310;2023-03-01T15:30:33;3.50;;;3.20;;
11453;SDS011;5783;55.174;61.310;2023-03-01T15:35:56;3.37;;;3.07;;
11453;SDS011;5783;55.174;61.310;2023-03-01T15:38:28;3.27;;;2.80;;
11453;SDS011;5783;55.174;61.310;2023-03-01T15:46:57;2.90;;;2.70;;
11453;SDS011;5783;55.174;61.310;2023-03-01T15:49:31;3.17;;;2.43;;
11453;SDS011;5783;55.174;61.310;2023-03-01T16:00:49;3.00;;;2.70;;
11453;SDS011;5783;55.174;61.310;2023-03-01T16:03:21;3.33;;;2.50;;
11453;SDS011;5783;55.174;61.310;2023-03-01T16:05:51;3.53;;;2.73;;
11453;SDS011;5783;55.174;61.310;2023-03-01T16:08:20;2.90;;;2.60;;
11453;SDS011;5783;55.174;61.310;2023-03-01T16:10:49;3.10;;;2.77;;
11453;SDS011;5783;55.174;61.310;2023-03-01T16:13:20;3.23;;;2.50;;
11453;SDS011;5783;55.174;61.310;2023-03-01T16:15:50;2.40;;;2.20;;
11453;SDS011;5783;55.174;61.310;2023-03-01T16:18:20;3.60;;;2.23;;
11453;SDS011;5783;55.174;61.310;2023-03-01T16:20:49;3.03;;;2.60;;
11453;SDS011;5783;55.174;61.310;2023-03-01T16:23:19;2.80;;;2.50;;
11453;SDS011;5783;55.174;61.310;2023-03-01T16:25:50;2.80;;;2.47;;
11453;SDS011;5783;55.174;61.310;2023-03-01T16:28:21;3.00;;;2.70;;
11453;SDS011;5783;55.174;61.310;2023-03-01T16:30:52;2.57;;;2.37;;
11453;SDS011;5783;55.174;61.310;2023-03-01T16:33:21;2.67;;;2.47;;
11453;SDS011;5783;55.174;61.310;2023-03-01T16:35:50;3.00;;;2.70;;
11453;SDS011;5783;55.174;61.310;2023-03-01T16:38:19;3.60;;;2.63;;
11453;SDS011;5783;55.174;61.310;2023-03-01T16:40:50;2.60;;;2.40;;
11453;SDS011;5783;55.174;61.310;2023-03-01T16:43:20;3.23;;;2.90;;
11453;SDS011;5783;55.174;61.310;2023-03-01T16:45:49;3.17;;;2.60;;
11453;SDS011;5783;55.174;61.310;2023-03-01T16:48:38;3.20;;;2.60;;
11453;SDS011;5783;55.174;61.310;2023-03-01T16:51:07;2.70;;;2.50;;
11453;SDS011;5783;55.174;61.310;2023-03-01T16:53:37;2.77;;;2.57;;
11453;SDS011;5783;55.174;61.310;2023-03-01T16:56:08;2.77;;;2.57;;
11453;SDS011;5783;55.174;61.310;2023-03-01T16:58:37;3.03;;;2.60;;
11453;SDS011;5783;55.174;61.310;2023-03-01T17:03:40;2.83;;;2.40;;
11453;SDS011;5783;55.174;61.310;2023-03-01T17:06:11;2.73;;;2.53;;
11453;SDS011;5783;55.174;61.310;2023-03-01T17:08:42;2.70;;;2.50;;
11453;SDS011;5783;55.174;61.310;2023-03-01T17:11:47;2.80;;;2.40;;
11453;SDS011;5783;55.174;61.310;2023-03-01T17:13:44;3.10;;;2.60;;
11453;SDS011;5783;55.174;61.310;2023-03-01T17:16:14;2.67;;;2.40;;
11453;SDS011;5783;55.174;61.310;2023-03-01T17:18:45;3.17;;;2.40;;
11453;SDS011;5783;55.174;61.310;2023-03-01T17:21:15;3.13;;;2.50;;
11453;SDS011;5783;55.174;61.310;2023-03-01T17:23:45;2.60;;;2.40;;
11453;SDS011;5783;55.174;61.310;2023-03-01T17:26:15;2.73;;;2.53;;
11453;SDS011;5783;55.174;61.310;2023-03-01T17:28:44;2.83;;;2.50;;
11453;SDS011;5783;55.174;61.310;2023-03-01T17:31:33;2.60;;;2.40;;
11453;SDS011;5783;55.174;61.310;2023-03-01T17:34:03;2.67;;;2.47;;
11453;SDS011;5783;55.174;61.310;2023-03-01T17:36:33;3.00;;;2.50;;
11453;SDS011;5783;55.174;61.310;2023-03-01T17:39:03;2.80;;;2.60;;
11453;SDS011;5783;55.174;61.310;2023-03-01T17:41:32;2.50;;;2.30;;
11453;SDS011;5783;55.174;61.310;2023-03-01T17:44:02;2.63;;;2.40;;
11453;SDS011;5783;55.174;61.310;2023-03-01T17:46:31;2.30;;;2.10;;
11453;SDS011;5783;55.174;61.310;2023-03-01T17:49:00;2.70;;;2.40;;
11453;SDS011;5783;55.174;61.310;2023-03-01T17:51:29;2.50;;;2.30;;
11453;SDS011;5783;55.174;61.310;2023-03-01T17:53:58;3.00;;;2.57;;
11453;SDS011;5783;55.174;61.310;2023-03-01T17:56:27;2.57;;;2.30;;
11453;SDS011;5783;55.174;61.310;2023-03-01T17:59:16;2.90;;;2.60;;
11453;SDS011;5783;55.174;61.310;2023-03-01T18:01:46;2.40;;;2.20;;
11453;SDS011;5783;55.174;61.310;2023-03-01T18:04:15;2.53;;;2.33;;
11453;SDS011;5783;55.174;61.310;2023-03-01T18:06:44;2.80;;;2.50;;
11453;SDS011;5783;55.174;61.310;2023-03-01T18:09:13;2.43;;;2.23;;
11453;SDS011;5783;55.174;61.310;2023-03-01T18:11:42;2.60;;;2.40;;
11453;SDS011;5783;55.174;61.310;2023-03-01T18:14:12;2.70;;;2.40;;
11453;SDS011;5783;55.174;61.310;2023-03-01T18:16:40;2.87;;;2.33;;
11453;SDS011;5783;55.174;61.310;2023-03-01T18:19:09;2.57;;;2.37;;
11453;SDS011;5783;55.174;61.310;2023-03-01T18:21:39;2.60;;;2.40;;
11453;SDS011;5783;55.174;61.310;2023-03-01T18:24:09;2.97;;;2.70;;
11453;SDS011;5783;55.174;61.310;2023-03-01T18:26:38;2.70;;;2.47;;
11453;SDS011;5783;55.174;61.310;2023-03-01T18:29:07;2.57;;;2.30;;
11453;SDS011;5783;55.174;61.310;2023-03-01T18:31:36;2.90;;;2.60;;
11453;SDS011;5783;55.174;61.310;2023-03-01T18:34:06;3.10;;;2.67;;
11453;SDS011;5783;55.174;61.310;2023-03-01T18:36:36;2.60;;;2.40;;
11453;SDS011;5783;55.174;61.310;2023-03-01T18:39:06;2.87;;;2.53;;
11453;SDS011;5783;55.174;61.310;2023-03-01T18:41:36;3.00;;;2.60;;
11453;SDS011;5783;55.174;61.310;2023-03-01T18:44:05;3.00;;;2.70;;
11453;SDS011;5783;55.174;61.310;2023-03-01T18:46:34;2.70;;;2.40;;
11453;SDS011;5783;55.174;61.310;2023-03-01T18:49:05;2.70;;;2.50;;
11453;SDS011;5783;55.174;61.310;2023-03-01T18:51:35;3.00;;;2.70;;
11453;SDS011;5783;55.174;61.310;2023-03-01T18:54:05;2.87;;;2.30;;
11453;SDS011;5783;55.174;61.310;2023-03-01T18:59:42;2.50;;;2.17;;
11453;SDS011;5783;55.174;61.310;2023-03-01T19:02:11;2.40;;;2.20;;
11453;SDS011;5783;55.174;61.310;2023-03-01T19:04:40;2.57;;;2.30;;
11453;SDS011;5783;55.174;61.310;2023-03-01T19:07:10;2.47;;;2.27;;
11453;SDS011;5783;55.174;61.310;2023-03-01T19:09:39;2.53;;;2.33;;
11453;SDS011;5783;55.174;61.310;2023-03-01T19:12:28;2.40;;;2.20;;